sensor_id;sensor_type;location;lat;lon;timestamp;P1;durP1;ratioP1;P2;durP2;ratioP2
7517;SDS011;3800;48.922;9.444;2023-02-18T00:00:11;1.60;;;1.30;;
7517;SDS011;3800;48.922;9.444;2023-02-18T00:02:39;1.37;;;1.27;;
7517;SDS011;3800;48.922;9.444;2023-02-18T00:05:07;1.70;;;1.40;;
7517;SDS011;3800;48.922;9.444;2023-02-18T00:07:35;1.80;;;1.30;;
7517;SDS011;3800;48.922;9.444;2023-02-18T00:10:04;2.00;;;1.50;;
7517;SDS011;3800;48.922;9.444;2023-02-18T00:12:30;1.27;;;1.17;;
7517;SDS011;3800;48.922;9.444;2023-02-18T00:14:58;1.60;;;1.50;;
7517;SDS011;3800;48.922;9.444;2023-02-18T00:17:26;1.50;;;1.30;;
7517;SDS011;3800;48.922;9.444;2023-02-18T00:19:53;1.47;;;1.20;;
7517;SDS011;3800;48.922;9.444;2023-02-18T00:22:21;1.40;;;1.30;;
7517;SDS011;3800;48.922;9.444;2023-02-18T00:24:48;1.30;;;1.20;;
7517;SDS011;3800;48.922;9.444;2023-02-18T00:27:16;3.00;;;1.50;;
7517;SDS011;3800;48.922;9.444;2023-02-18T00:29:44;1.30;;;1.20;;
7517;SDS011;3800;48.922;9.444;2023-02-18T00:32:11;1.53;;;1.40;;
7517;SDS011;3800;48.922;9.444;2023-02-18T00:34:39;1.50;;;1.40;;
7517;SDS011;3800;48.922;9.444;2023-02-18T00:37:07;1.53;;;1.30;;
7517;SDS011;3800;48.922;9.444;2023-02-18T00:39:34;1.57;;;1.40;;
7517;SDS011;3800;48.922;9.444;2023-02-18T00:42:02;1.43;;;1.30;;
7517;SDS011;3800;48.922;9.444;2023-02-18T00:44:30;1.50;;;1.13;;
7517;SDS011;3800;48.922;9.444;2023-02-18T00:46:58;1.80;;;1.30;;
7517;SDS011;3800;48.922;9.444;2023-02-18T00:49:26;1.40;;;1.30;;
7517;SDS011;3800;48.922;9.444;2023-02-18T00:51:53;1.60;;;1.30;;
7517;SDS011;3800;48.922;9.444;2023-02-18T00:54:21;2.27;;;1.40;;
7517;SDS011;3800;48.922;9.444;2023-02-18T00:56:49;1.57;;;1.47;;
7517;SDS011;3800;48.922;9.444;2023-02-18T00:59:16;1.60;;;1.50;;
7517;SDS011;3800;48.922;9.444;2023-02-18T01:01:44;2.27;;;1.67;;
7517;SDS011;3800;48.922;9.444;2023-02-18T01:04:12;2.17;;;1.30;;
7517;SDS011;3800;48.922;9.444;2023-02-18T01:06:39;1.40;;;1.30;;
7517;SDS011;3800;48.922;9.444;2023-02-18T01:09:07;1.40;;;1.30;;
7517;SDS011;3800;48.922;9.444;2023-02-18T01:11:35;1.40;;;1.30;;
7517;SDS011;3800;48.922;9.444;2023-02-18T01:14:02;1.53;;;1.33;;
7517;SDS011;3800;48.922;9.444;2023-02-18T01:16:30;1.47;;;1.17;;
7517;SDS011;3800;48.922;9.444;2023-02-18T01:18:57;1.30;;;1.20;;
7517;SDS011;3800;48.922;9.444;2023-02-18T01:21:25;1.30;;;1.20;;
7517;SDS011;3800;48.922;9.444;2023-02-18T01:23:53;1.80;;;1.30;;
7517;SDS011;3800;48.922;9.444;2023-02-18T01:26:20;1.57;;;1.40;;
7517;SDS011;3800;48.922;9.444;2023-02-18T01:28:48;1.40;;;1.30;;
7517;SDS011;3800;48.922;9.444;2023-02-18T01:31:16;1.30;;;1.20;;
7517;SDS011;3800;48.922;9.444;2023-02-18T01:33:43;1.50;;;1.40;;
7517;SDS011;3800;48.922;9.444;2023-02-18T01:36:11;1.80;;;1.20;;
7517;SDS011;3800;48.922;9.444;2023-02-18T01:38:38;1.63;;;1.23;;
7517;SDS011;3800;48.922;9.444;2023-02-18T01:41:06;1.50;;;1.30;;
7517;SDS011;3800;48.922;9.444;2023-02-18T01:43:34;1.90;;;1.30;;
7517;SDS011;3800;48.922;9.444;2023-02-18T01:46:03;2.33;;;1.40;;
7517;SDS011;3800;48.922;9.444;2023-02-18T01:48:33;1.40;;;1.27;;
7517;SDS011;3800;48.922;9.444;2023-02-18T01:51:03;1.30;;;1.20;;
7517;SDS011;3800;48.922;9.444;2023-02-18T01:53:36;1.67;;;1.40;;
7517;SDS011;3800;48.922;9.444;2023-02-18T01:56:03;1.53;;;1.40;;
7517;SDS011;3800;48.922;9.444;2023-02-18T01:58:31;1.53;;;1.43;;
7517;SDS011;3800;48.922;9.444;2023-02-18T02:00:59;1.70;;;1.47;;
7517;SDS011;3800;48.922;9.444;2023-02-18T02:03:27;1.70;;;1.60;;
7517;SDS011;3800;48.922;9.444;2023-02-18T02:05:54;1.97;;;1.40;;
7517;SDS011;3800;48.922;9.444;2023-02-18T02:08:22;1.60;;;1.50;;
7517;SDS011;3800;48.922;9.444;2023-02-18T02:11:01;1.63;;;1.53;;
7517;SDS011;3800;48.922;9.444;2023-02-18T02:13:35;2.20;;;1.63;;
7517;SDS011;3800;48.922;9.444;2023-02-18T02:16:05;1.77;;;1.60;;
7517;SDS011;3800;48.922;9.444;2023-02-18T02:21:44;1.60;;;1.43;;
7517;SDS011;3800;48.922;9.444;2023-02-18T02:24:45;1.53;;;1.43;;
7517;SDS011;3800;48.922;9.444;2023-02-18T02:29:36;2.57;;;1.40;;
7517;SDS011;3800;48.922;9.444;2023-02-18T02:32:54;1.57;;;1.47;;
7517;SDS011;3800;48.922;9.444;2023-02-18T02:35:22;2.00;;;1.60;;
7517;SDS011;3800;48.922;9.444;2023-02-18T02:37:58;2.60;;;1.37;;
7517;SDS011;3800;48.922;9.444;2023-02-18T02:43:04;1.70;;;1.60;;
7517;SDS011;3800;48.922;9.444;2023-02-18T02:45:42;1.80;;;1.70;;
7517;SDS011;3800;48.922;9.444;2023-02-18T02:51:04;2.47;;;1.60;;
7517;SDS011;3800;48.922;9.444;2023-02-18T02:53:48;2.00;;;1.80;;
7517;SDS011;3800;48.922;9.444;2023-02-18T02:56:18;1.63;;;1.53;;
7517;SDS011;3800;48.922;9.444;2023-02-18T02:58:46;1.80;;;1.70;;
7517;SDS011;3800;48.922;9.444;2023-02-18T03:01:18;1.60;;;1.50;;
7517;SDS011;3800;48.922;9.444;2023-02-18T03:03:57;1.93;;;1.73;;
7517;SDS011;3800;48.922;9.444;2023-02-18T03:06:33;1.87;;;1.70;;
7517;SDS011;3800;48.922;9.444;2023-02-18T03:09:20;4.50;;;1.90;;
7517;SDS011;3800;48.922;9.444;2023-02-18T03:11:51;3.00;;;1.80;;
7517;SDS011;3800;48.922;9.444;2023-02-18T03:14:19;1.90;;;1.80;;
7517;SDS011;3800;48.922;9.444;2023-02-18T03:16:53;2.30;;;2.00;;
7517;SDS011;3800;48.922;9.444;2023-02-18T03:19:21;2.00;;;1.63;;
7517;SDS011;3800;48.922;9.444;2023-02-18T03:21:59;2.20;;;1.70;;
7517;SDS011;3800;48.922;9.444;2023-02-18T03:24:31;1.70;;;1.60;;
7517;SDS011;3800;48.922;9.444;2023-02-18T03:29:54;2.83;;;1.70;;
7517;SDS011;3800;48.922;9.444;2023-02-18T03:32:20;2.37;;;1.70;;
7517;SDS011;3800;48.922;9.444;2023-02-18T03:34:49;1.70;;;1.60;;
7517;SDS011;3800;48.922;9.444;2023-02-18T03:37:15;1.87;;;1.70;;
7517;SDS011;3800;48.922;9.444;2023-02-18T03:39:44;1.70;;;1.60;;
7517;SDS011;3800;48.922;9.444;2023-02-18T03:42:11;1.70;;;1.60;;
7517;SDS011;3800;48.922;9.444;2023-02-18T03:44:38;1.97;;;1.50;;
7517;SDS011;3800;48.922;9.444;2023-02-18T03:47:06;2.13;;;1.47;;
7517;SDS011;3800;48.922;9.444;2023-02-18T03:49:34;1.60;;;1.50;;
7517;SDS011;3800;48.922;9.444;2023-02-18T03:52:01;1.60;;;1.50;;
7517;SDS011;3800;48.922;9.444;2023-02-18T03:54:29;1.80;;;1.50;;
7517;SDS011;3800;48.922;9.444;2023-02-18T03:56:57;1.73;;;1.50;;
7517;SDS011;3800;48.922;9.444;2023-02-18T03:59:24;1.67;;;1.57;;
7517;SDS011;3800;48.922;9.444;2023-02-18T04:01:52;1.73;;;1.50;;
7517;SDS011;3800;48.922;9.444;2023-02-18T04:04:19;2.10;;;1.50;;
7517;SDS011;3800;48.922;9.444;2023-02-18T04:06:47;2.67;;;1.63;;
7517;SDS011;3800;48.922;9.444;2023-02-18T04:09:15;2.27;;;1.50;;
7517;SDS011;3800;48.922;9.444;2023-02-18T04:11:42;2.47;;;1.50;;
7517;SDS011;3800;48.922;9.444;2023-02-18T04:14:12;2.37;;;1.50;;
7517;SDS011;3800;48.922;9.444;2023-02-18T04:16:38;1.50;;;1.40;;
7517;SDS011;3800;48.922;9.444;2023-02-18T04:19:05;1.83;;;1.43;;
7517;SDS011;3800;48.922;9.444;2023-02-18T04:21:33;2.90;;;1.50;;
7517;SDS011;3800;48.922;9.444;2023-02-18T04:24:01;1.50;;;1.40;;
7517;SDS011;3800;48.922;9.444;2023-02-18T04:26:28;1.83;;;1.50;;
7517;SDS011;3800;48.922;9.444;2023-02-18T04:28:56;1.60;;;1.50;;
7517;SDS011;3800;48.922;9.444;2023-02-18T04:31:23;4.80;;;1.50;;
7517;SDS011;3800;48.922;9.444;2023-02-18T04:33:51;2.40;;;1.60;;
7517;SDS011;3800;48.922;9.444;2023-02-18T04:36:19;1.60;;;1.40;;
7517;SDS011;3800;48.922;9.444;2023-02-18T04:38:46;1.63;;;1.40;;
7517;SDS011;3800;48.922;9.444;2023-02-18T04:41:14;1.53;;;1.30;;
7517;SDS011;3800;48.922;9.444;2023-02-18T04:43:42;1.60;;;1.50;;
7517;SDS011;3800;48.922;9.444;2023-02-18T04:46:09;1.50;;;1.30;;
7517;SDS011;3800;48.922;9.444;2023-02-18T04:48:37;2.00;;;1.60;;
7517;SDS011;3800;48.922;9.444;2023-02-18T04:51:05;1.80;;;1.40;;
7517;SDS011;3800;48.922;9.444;2023-02-18T04:53:32;1.77;;;1.50;;
7517;SDS011;3800;48.922;9.444;2023-02-18T04:56:00;2.00;;;1.30;;
7517;SDS011;3800;48.922;9.444;2023-02-18T04:58:27;2.63;;;1.33;;
7517;SDS011;3800;48.922;9.444;2023-02-18T05:00:58;1.83;;;1.60;;
7517;SDS011;3800;48.922;9.444;2023-02-18T05:03:25;2.07;;;1.50;;
7517;SDS011;3800;48.922;9.444;2023-02-18T05:05:52;1.90;;;1.50;;
7517;SDS011;3800;48.922;9.444;2023-02-18T05:08:20;1.53;;;1.40;;
7517;SDS011;3800;48.922;9.444;2023-02-18T05:10:47;1.50;;;1.40;;
7517;SDS011;3800;48.922;9.444;2023-02-18T05:13:15;1.57;;;1.37;;
7517;SDS011;3800;48.922;9.444;2023-02-18T05:15:43;1.50;;;1.20;;
7517;SDS011;3800;48.922;9.444;2023-02-18T05:18:10;2.10;;;1.57;;
7517;SDS011;3800;48.922;9.444;2023-02-18T05:20:38;1.80;;;1.70;;
7517;SDS011;3800;48.922;9.444;2023-02-18T05:23:06;1.73;;;1.53;;
7517;SDS011;3800;48.922;9.444;2023-02-18T05:25:33;1.93;;;1.70;;
7517;SDS011;3800;48.922;9.444;2023-02-18T05:28:01;1.60;;;1.50;;
7517;SDS011;3800;48.922;9.444;2023-02-18T05:30:29;1.70;;;1.53;;
7517;SDS011;3800;48.922;9.444;2023-02-18T05:32:56;1.97;;;1.77;;
7517;SDS011;3800;48.922;9.444;2023-02-18T05:35:24;1.90;;;1.70;;
7517;SDS011;3800;48.922;9.444;2023-02-18T05:37:51;2.37;;;1.67;;
7517;SDS011;3800;48.922;9.444;2023-02-18T05:40:19;1.83;;;1.73;;
7517;SDS011;3800;48.922;9.444;2023-02-18T05:42:47;2.27;;;2.00;;
7517;SDS011;3800;48.922;9.444;2023-02-18T05:45:14;1.93;;;1.50;;
7517;SDS011;3800;48.922;9.444;2023-02-18T05:47:42;1.70;;;1.50;;
7517;SDS011;3800;48.922;9.444;2023-02-18T05:50:10;1.77;;;1.67;;
7517;SDS011;3800;48.922;9.444;2023-02-18T05:52:37;1.70;;;1.60;;
7517;SDS011;3800;48.922;9.444;2023-02-18T05:55:05;1.67;;;1.57;;
7517;SDS011;3800;48.922;9.444;2023-02-18T05:57:33;1.80;;;1.60;;
7517;SDS011;3800;48.922;9.444;2023-02-18T06:00:03;3.10;;;1.80;;
7517;SDS011;3800;48.922;9.444;2023-02-18T06:02:29;1.87;;;1.60;;
7517;SDS011;3800;48.922;9.444;2023-02-18T06:04:58;2.00;;;1.60;;
7517;SDS011;3800;48.922;9.444;2023-02-18T06:07:26;1.80;;;1.70;;
7517;SDS011;3800;48.922;9.444;2023-02-18T06:09:54;1.93;;;1.70;;
7517;SDS011;3800;48.922;9.444;2023-02-18T06:12:22;1.50;;;1.37;;
7517;SDS011;3800;48.922;9.444;2023-02-18T06:14:49;1.93;;;1.50;;
7517;SDS011;3800;48.922;9.444;2023-02-18T06:17:17;1.77;;;1.57;;
7517;SDS011;3800;48.922;9.444;2023-02-18T06:19:44;1.90;;;1.70;;
7517;SDS011;3800;48.922;9.444;2023-02-18T06:22:12;2.10;;;1.90;;
7517;SDS011;3800;48.922;9.444;2023-02-18T06:24:40;1.87;;;1.63;;
7517;SDS011;3800;48.922;9.444;2023-02-18T06:27:07;2.43;;;1.50;;
7517;SDS011;3800;48.922;9.444;2023-02-18T06:29:35;2.27;;;1.40;;
7517;SDS011;3800;48.922;9.444;2023-02-18T06:32:03;1.80;;;1.70;;
7517;SDS011;3800;48.922;9.444;2023-02-18T06:34:31;1.73;;;1.53;;
7517;SDS011;3800;48.922;9.444;2023-02-18T06:36:59;1.60;;;1.50;;
7517;SDS011;3800;48.922;9.444;2023-02-18T06:39:27;1.60;;;1.40;;
7517;SDS011;3800;48.922;9.444;2023-02-18T06:41:55;1.50;;;1.40;;
7517;SDS011;3800;48.922;9.444;2023-02-18T06:44:22;2.17;;;1.50;;
7517;SDS011;3800;48.922;9.444;2023-02-18T06:46:51;1.50;;;1.40;;
7517;SDS011;3800;48.922;9.444;2023-02-18T06:49:18;1.50;;;1.40;;
7517;SDS011;3800;48.922;9.444;2023-02-18T06:51:46;2.00;;;1.70;;
7517;SDS011;3800;48.922;9.444;2023-02-18T06:54:13;1.83;;;1.60;;
7517;SDS011;3800;48.922;9.444;2023-02-18T06:56:41;1.50;;;1.40;;
7517;SDS011;3800;48.922;9.444;2023-02-18T06:59:09;2.30;;;1.67;;
7517;SDS011;3800;48.922;9.444;2023-02-18T07:01:36;2.40;;;1.50;;
7517;SDS011;3800;48.922;9.444;2023-02-18T07:04:04;1.83;;;1.40;;
7517;SDS011;3800;48.922;9.444;2023-02-18T07:06:34;1.80;;;1.40;;
7517;SDS011;3800;48.922;9.444;2023-02-18T07:09:02;1.50;;;1.40;;
7517;SDS011;3800;48.922;9.444;2023-02-18T07:11:30;1.77;;;1.67;;
7517;SDS011;3800;48.922;9.444;2023-02-18T07:13:58;1.63;;;1.40;;
7517;SDS011;3800;48.922;9.444;2023-02-18T07:16:26;1.73;;;1.63;;
7517;SDS011;3800;48.922;9.444;2023-02-18T07:18:55;1.63;;;1.53;;
7517;SDS011;3800;48.922;9.444;2023-02-18T07:21:23;2.10;;;1.90;;
7517;SDS011;3800;48.922;9.444;2023-02-18T07:23:51;3.00;;;2.10;;
7517;SDS011;3800;48.922;9.444;2023-02-18T07:26:19;1.97;;;1.70;;
7517;SDS011;3800;48.922;9.444;2023-02-18T07:28:47;1.90;;;1.73;;
7517;SDS011;3800;48.922;9.444;2023-02-18T07:31:14;1.90;;;1.80;;
7517;SDS011;3800;48.922;9.444;2023-02-18T07:33:42;2.00;;;1.70;;
7517;SDS011;3800;48.922;9.444;2023-02-18T07:36:10;2.20;;;1.73;;
7517;SDS011;3800;48.922;9.444;2023-02-18T07:38:37;2.17;;;1.97;;
7517;SDS011;3800;48.922;9.444;2023-02-18T07:41:05;2.40;;;2.07;;
7517;SDS011;3800;48.922;9.444;2023-02-18T07:43:33;1.87;;;1.77;;
7517;SDS011;3800;48.922;9.444;2023-02-18T07:46:05;2.03;;;1.83;;
7517;SDS011;3800;48.922;9.444;2023-02-18T07:48:32;3.13;;;1.70;;
7517;SDS011;3800;48.922;9.444;2023-02-18T07:51:00;3.20;;;1.60;;
7517;SDS011;3800;48.922;9.444;2023-02-18T07:53:29;3.30;;;1.80;;
7517;SDS011;3800;48.922;9.444;2023-02-18T07:55:57;2.77;;;1.90;;
7517;SDS011;3800;48.922;9.444;2023-02-18T07:58:26;2.60;;;1.90;;
7517;SDS011;3800;48.922;9.444;2023-02-18T08:00:53;2.13;;;1.90;;
7517;SDS011;3800;48.922;9.444;2023-02-18T08:03:21;2.60;;;2.20;;
7517;SDS011;3800;48.922;9.444;2023-02-18T08:05:48;4.00;;;2.07;;
7517;SDS011;3800;48.922;9.444;2023-02-18T08:08:18;2.23;;;2.00;;
7517;SDS011;3800;48.922;9.444;2023-02-18T08:10:47;2.57;;;1.90;;
7517;SDS011;3800;48.922;9.444;2023-02-18T08:13:14;2.67;;;2.33;;
7517;SDS011;3800;48.922;9.444;2023-02-18T08:15:42;2.57;;;2.30;;
7517;SDS011;3800;48.922;9.444;2023-02-18T08:18:13;4.47;;;2.20;;
7517;SDS011;3800;48.922;9.444;2023-02-18T08:20:39;2.37;;;2.17;;
7517;SDS011;3800;48.922;9.444;2023-02-18T08:23:08;2.53;;;1.90;;
7517;SDS011;3800;48.922;9.444;2023-02-18T08:25:35;5.33;;;2.13;;
7517;SDS011;3800;48.922;9.444;2023-02-18T08:28:04;3.83;;;2.00;;
7517;SDS011;3800;48.922;9.444;2023-02-18T08:30:31;3.40;;;2.20;;
7517;SDS011;3800;48.922;9.444;2023-02-18T08:33:00;3.20;;;2.27;;
7517;SDS011;3800;48.922;9.444;2023-02-18T08:35:27;2.57;;;2.33;;
7517;SDS011;3800;48.922;9.444;2023-02-18T08:37:56;2.30;;;2.00;;
7517;SDS011;3800;48.922;9.444;2023-02-18T08:40:24;2.53;;;2.30;;
7517;SDS011;3800;48.922;9.444;2023-02-18T08:42:53;1.97;;;1.87;;
7517;SDS011;3800;48.922;9.444;2023-02-18T08:45:21;2.87;;;2.17;;
7517;SDS011;3800;48.922;9.444;2023-02-18T08:47:49;3.03;;;2.30;;
7517;SDS011;3800;48.922;9.444;2023-02-18T08:50:18;3.17;;;2.03;;
7517;SDS011;3800;48.922;9.444;2023-02-18T08:52:47;2.10;;;1.90;;
7517;SDS011;3800;48.922;9.444;2023-02-18T08:55:15;7.03;;;2.20;;
7517;SDS011;3800;48.922;9.444;2023-02-18T08:57:43;3.43;;;2.23;;
7517;SDS011;3800;48.922;9.444;2023-02-18T09:00:12;2.33;;;2.00;;
7517;SDS011;3800;48.922;9.444;2023-02-18T09:02:41;4.60;;;2.27;;
7517;SDS011;3800;48.922;9.444;2023-02-18T09:05:09;2.73;;;2.10;;
7517;SDS011;3800;48.922;9.444;2023-02-18T09:07:38;2.10;;;1.90;;
7517;SDS011;3800;48.922;9.444;2023-02-18T09:10:07;2.73;;;1.90;;
7517;SDS011;3800;48.922;9.444;2023-02-18T09:12:37;2.80;;;1.90;;
7517;SDS011;3800;48.922;9.444;2023-02-18T09:15:05;2.30;;;1.90;;
7517;SDS011;3800;48.922;9.444;2023-02-18T09:17:33;2.87;;;2.20;;
7517;SDS011;3800;48.922;9.444;2023-02-18T09:20:02;1.70;;;1.60;;
7517;SDS011;3800;48.922;9.444;2023-02-18T09:22:30;2.20;;;2.00;;
7517;SDS011;3800;48.922;9.444;2023-02-18T09:24:59;4.20;;;1.90;;
7517;SDS011;3800;48.922;9.444;2023-02-18T09:27:27;2.67;;;1.90;;
7517;SDS011;3800;48.922;9.444;2023-02-18T09:29:55;2.17;;;1.80;;
7517;SDS011;3800;48.922;9.444;2023-02-18T09:32:23;2.50;;;1.73;;
7517;SDS011;3800;48.922;9.444;2023-02-18T09:34:51;2.43;;;1.50;;
7517;SDS011;3800;48.922;9.444;2023-02-18T09:37:19;2.53;;;1.70;;
7517;SDS011;3800;48.922;9.444;2023-02-18T09:39:47;3.53;;;1.67;;
7517;SDS011;3800;48.922;9.444;2023-02-18T09:42:15;1.80;;;1.60;;
7517;SDS011;3800;48.922;9.444;2023-02-18T09:44:46;1.50;;;1.40;;
7517;SDS011;3800;48.922;9.444;2023-02-18T09:47:37;2.53;;;1.80;;
7517;SDS011;3800;48.922;9.444;2023-02-18T09:50:06;1.93;;;1.70;;
7517;SDS011;3800;48.922;9.444;2023-02-18T09:52:36;1.90;;;1.63;;
7517;SDS011;3800;48.922;9.444;2023-02-18T09:57:41;1.90;;;1.57;;
7517;SDS011;3800;48.922;9.444;2023-02-18T10:00:11;2.07;;;1.63;;
7517;SDS011;3800;48.922;9.444;2023-02-18T10:02:41;3.03;;;1.60;;
7517;SDS011;3800;48.922;9.444;2023-02-18T10:05:10;1.97;;;1.77;;
7517;SDS011;3800;48.922;9.444;2023-02-18T10:07:39;1.53;;;1.40;;
7517;SDS011;3800;48.922;9.444;2023-02-18T10:10:15;2.53;;;1.53;;
7517;SDS011;3800;48.922;9.444;2023-02-18T10:12:54;2.17;;;1.40;;
7517;SDS011;3800;48.922;9.444;2023-02-18T10:15:22;1.37;;;1.27;;
7517;SDS011;3800;48.922;9.444;2023-02-18T10:17:50;4.10;;;1.53;;
7517;SDS011;3800;48.922;9.444;2023-02-18T10:20:19;2.90;;;1.47;;
7517;SDS011;3800;48.922;9.444;2023-02-18T10:22:46;1.40;;;1.30;;
7517;SDS011;3800;48.922;9.444;2023-02-18T10:25:16;1.90;;;1.50;;
7517;SDS011;3800;48.922;9.444;2023-02-18T10:27:42;3.90;;;1.60;;
7517;SDS011;3800;48.922;9.444;2023-02-18T10:33:10;3.57;;;1.60;;
7517;SDS011;3800;48.922;9.444;2023-02-18T10:35:50;2.10;;;1.30;;
7517;SDS011;3800;48.922;9.444;2023-02-18T10:38:52;3.30;;;1.50;;
7517;SDS011;3800;48.922;9.444;2023-02-18T10:41:21;3.60;;;1.40;;
7517;SDS011;3800;48.922;9.444;2023-02-18T10:43:57;1.83;;;1.50;;
7517;SDS011;3800;48.922;9.444;2023-02-18T10:46:33;1.90;;;1.50;;
7517;SDS011;3800;48.922;9.444;2023-02-18T10:49:05;1.50;;;1.40;;
7517;SDS011;3800;48.922;9.444;2023-02-18T10:51:32;1.43;;;1.33;;
7517;SDS011;3800;48.922;9.444;2023-02-18T10:53:59;1.87;;;1.63;;
7517;SDS011;3800;48.922;9.444;2023-02-18T10:56:34;1.57;;;1.47;;
7517;SDS011;3800;48.922;9.444;2023-02-18T10:59:33;1.70;;;1.60;;
7517;SDS011;3800;48.922;9.444;2023-02-18T11:01:46;1.93;;;1.43;;
7517;SDS011;3800;48.922;9.444;2023-02-18T11:04:15;2.50;;;1.40;;
7517;SDS011;3800;48.922;9.444;2023-02-18T11:06:45;1.60;;;1.37;;
7517;SDS011;3800;48.922;9.444;2023-02-18T11:09:22;2.03;;;1.63;;
7517;SDS011;3800;48.922;9.444;2023-02-18T11:11:47;1.77;;;1.40;;
7517;SDS011;3800;48.922;9.444;2023-02-18T11:14:14;2.63;;;1.40;;
7517;SDS011;3800;48.922;9.444;2023-02-18T11:16:43;1.30;;;1.20;;
7517;SDS011;3800;48.922;9.444;2023-02-18T11:22:14;1.93;;;1.40;;
7517;SDS011;3800;48.922;9.444;2023-02-18T11:24:43;3.83;;;1.40;;
7517;SDS011;3800;48.922;9.444;2023-02-18T11:27:17;1.57;;;1.47;;
7517;SDS011;3800;48.922;9.444;2023-02-18T11:29:42;2.33;;;1.30;;
7517;SDS011;3800;48.922;9.444;2023-02-18T11:32:10;1.87;;;1.40;;
7517;SDS011;3800;48.922;9.444;2023-02-18T11:34:40;3.23;;;1.50;;
7517;SDS011;3800;48.922;9.444;2023-02-18T11:37:07;1.70;;;1.40;;
7517;SDS011;3800;48.922;9.444;2023-02-18T11:39:35;1.40;;;1.30;;
7517;SDS011;3800;48.922;9.444;2023-02-18T11:42:04;2.70;;;1.47;;
7517;SDS011;3800;48.922;9.444;2023-02-18T11:44:32;2.80;;;1.47;;
7517;SDS011;3800;48.922;9.444;2023-02-18T11:47:01;1.73;;;1.47;;
7517;SDS011;3800;48.922;9.444;2023-02-18T11:49:29;2.37;;;1.67;;
7517;SDS011;3800;48.922;9.444;2023-02-18T11:52:02;1.80;;;1.30;;
7517;SDS011;3800;48.922;9.444;2023-02-18T11:55:20;1.67;;;1.40;;
7517;SDS011;3800;48.922;9.444;2023-02-18T11:57:34;1.93;;;1.40;;
7517;SDS011;3800;48.922;9.444;2023-02-18T12:00:01;1.77;;;1.63;;
7517;SDS011;3800;48.922;9.444;2023-02-18T12:02:36;2.50;;;1.67;;
7517;SDS011;3800;48.922;9.444;2023-02-18T12:05:13;1.70;;;1.60;;
7517;SDS011;3800;48.922;9.444;2023-02-18T12:07:43;3.27;;;1.67;;
7517;SDS011;3800;48.922;9.444;2023-02-18T12:10:11;2.63;;;1.60;;
7517;SDS011;3800;48.922;9.444;2023-02-18T12:12:45;2.00;;;1.80;;
7517;SDS011;3800;48.922;9.444;2023-02-18T12:15:16;2.53;;;1.90;;
7517;SDS011;3800;48.922;9.444;2023-02-18T12:17:48;2.30;;;1.90;;
7517;SDS011;3800;48.922;9.444;2023-02-18T12:20:30;2.70;;;1.80;;
7517;SDS011;3800;48.922;9.444;2023-02-18T12:23:07;1.70;;;1.60;;
7517;SDS011;3800;48.922;9.444;2023-02-18T12:25:34;2.10;;;1.80;;
7517;SDS011;3800;48.922;9.444;2023-02-18T12:30:46;3.30;;;1.53;;
7517;SDS011;3800;48.922;9.444;2023-02-18T12:33:30;2.20;;;1.80;;
7517;SDS011;3800;48.922;9.444;2023-02-18T12:38:52;2.03;;;1.67;;
7517;SDS011;3800;48.922;9.444;2023-02-18T12:47:03;2.87;;;1.70;;
7517;SDS011;3800;48.922;9.444;2023-02-18T12:50:45;1.77;;;1.67;;
7517;SDS011;3800;48.922;9.444;2023-02-18T12:52:40;2.93;;;1.80;;
7517;SDS011;3800;48.922;9.444;2023-02-18T12:55:18;1.70;;;1.60;;
7517;SDS011;3800;48.922;9.444;2023-02-18T12:57:47;2.00;;;1.80;;
7517;SDS011;3800;48.922;9.444;2023-02-18T13:00:22;3.20;;;2.17;;
7517;SDS011;3800;48.922;9.444;2023-02-18T13:03:00;2.53;;;1.90;;
7517;SDS011;3800;48.922;9.444;2023-02-18T13:08:14;2.00;;;1.80;;
7517;SDS011;3800;48.922;9.444;2023-02-18T13:10:50;2.27;;;2.07;;
7517;SDS011;3800;48.922;9.444;2023-02-18T13:13:23;2.10;;;1.90;;
7517;SDS011;3800;48.922;9.444;2023-02-18T13:15:51;2.43;;;1.90;;
7517;SDS011;3800;48.922;9.444;2023-02-18T13:18:23;2.50;;;2.10;;
7517;SDS011;3800;48.922;9.444;2023-02-18T13:20:50;2.07;;;1.87;;
7517;SDS011;3800;48.922;9.444;2023-02-18T13:23:19;2.17;;;1.97;;
7517;SDS011;3800;48.922;9.444;2023-02-18T13:25:46;2.10;;;1.90;;
7517;SDS011;3800;48.922;9.444;2023-02-18T13:28:17;2.30;;;2.10;;
7517;SDS011;3800;48.922;9.444;2023-02-18T13:31:01;2.10;;;1.83;;
7517;SDS011;3800;48.922;9.444;2023-02-18T13:33:35;2.90;;;2.00;;
7517;SDS011;3800;48.922;9.444;2023-02-18T13:38:49;2.20;;;2.00;;
7517;SDS011;3800;48.922;9.444;2023-02-18T13:41:09;3.10;;;1.83;;
7517;SDS011;3800;48.922;9.444;2023-02-18T13:43:38;5.37;;;1.93;;
7517;SDS011;3800;48.922;9.444;2023-02-18T13:46:10;2.17;;;1.97;;
7517;SDS011;3800;48.922;9.444;2023-02-18T13:51:27;2.23;;;2.03;;
7517;SDS011;3800;48.922;9.444;2023-02-18T13:53:53;2.87;;;1.80;;
7517;SDS011;3800;48.922;9.444;2023-02-18T13:56:22;3.63;;;2.00;;
7517;SDS011;3800;48.922;9.444;2023-02-18T13:58:49;2.50;;;1.90;;
7517;SDS011;3800;48.922;9.444;2023-02-18T14:01:36;2.43;;;1.90;;
7517;SDS011;3800;48.922;9.444;2023-02-18T14:03:57;3.23;;;1.90;;
7517;SDS011;3800;48.922;9.444;2023-02-18T14:06:26;2.80;;;1.97;;
7517;SDS011;3800;48.922;9.444;2023-02-18T14:11:48;3.33;;;1.90;;
7517;SDS011;3800;48.922;9.444;2023-02-18T14:14:32;1.93;;;1.73;;
7517;SDS011;3800;48.922;9.444;2023-02-18T14:19:39;1.90;;;1.80;;
7517;SDS011;3800;48.922;9.444;2023-02-18T14:24:48;3.03;;;2.40;;
7517;SDS011;3800;48.922;9.444;2023-02-18T14:27:15;3.03;;;2.00;;
7517;SDS011;3800;48.922;9.444;2023-02-18T14:29:42;2.37;;;2.17;;
7517;SDS011;3800;48.922;9.444;2023-02-18T14:32:10;2.03;;;1.87;;
7517;SDS011;3800;48.922;9.444;2023-02-18T14:34:43;2.70;;;2.00;;
7517;SDS011;3800;48.922;9.444;2023-02-18T14:37:19;2.20;;;1.93;;
7517;SDS011;3800;48.922;9.444;2023-02-18T14:39:52;2.83;;;2.40;;
7517;SDS011;3800;48.922;9.444;2023-02-18T14:42:39;3.07;;;1.90;;
7517;SDS011;3800;48.922;9.444;2023-02-18T14:45:10;3.03;;;2.07;;
7517;SDS011;3800;48.922;9.444;2023-02-18T14:50:19;2.83;;;2.30;;
7517;SDS011;3800;48.922;9.444;2023-02-18T14:52:48;3.37;;;2.30;;
7517;SDS011;3800;48.922;9.444;2023-02-18T14:55:18;3.97;;;2.30;;
7517;SDS011;3800;48.922;9.444;2023-02-18T14:57:47;2.67;;;2.40;;
7517;SDS011;3800;48.922;9.444;2023-02-18T15:00:16;2.50;;;2.27;;
7517;SDS011;3800;48.922;9.444;2023-02-18T15:02:49;7.13;;;5.47;;
7517;SDS011;3800;48.922;9.444;2023-02-18T15:05:18;2.90;;;2.70;;
7517;SDS011;3800;48.922;9.444;2023-02-18T15:10:28;5.57;;;4.53;;
7517;SDS011;3800;48.922;9.444;2023-02-18T15:13:11;3.40;;;2.90;;
7517;SDS011;3800;48.922;9.444;2023-02-18T15:15:35;2.57;;;2.37;;
7517;SDS011;3800;48.922;9.444;2023-02-18T15:18:03;2.87;;;2.60;;
7517;SDS011;3800;48.922;9.444;2023-02-18T15:20:32;2.87;;;2.60;;
7517;SDS011;3800;48.922;9.444;2023-02-18T15:23:01;2.70;;;2.50;;
7517;SDS011;3800;48.922;9.444;2023-02-18T15:25:28;3.33;;;2.30;;
7517;SDS011;3800;48.922;9.444;2023-02-18T15:27:56;2.30;;;2.10;;
7517;SDS011;3800;48.922;9.444;2023-02-18T15:30:27;4.27;;;3.63;;
7517;SDS011;3800;48.922;9.444;2023-02-18T15:32:55;3.20;;;2.40;;
7517;SDS011;3800;48.922;9.444;2023-02-18T15:35:22;2.60;;;2.40;;
7517;SDS011;3800;48.922;9.444;2023-02-18T15:37:52;2.87;;;2.57;;
7517;SDS011;3800;48.922;9.444;2023-02-18T15:40:19;3.23;;;2.77;;
7517;SDS011;3800;48.922;9.444;2023-02-18T15:42:50;4.50;;;2.47;;
7517;SDS011;3800;48.922;9.444;2023-02-18T15:45:22;4.73;;;2.53;;
7517;SDS011;3800;48.922;9.444;2023-02-18T15:47:52;2.77;;;2.47;;
7517;SDS011;3800;48.922;9.444;2023-02-18T15:50:22;2.60;;;2.40;;
7517;SDS011;3800;48.922;9.444;2023-02-18T15:52:48;3.97;;;2.47;;
7517;SDS011;3800;48.922;9.444;2023-02-18T15:55:21;2.80;;;2.50;;
7517;SDS011;3800;48.922;9.444;2023-02-18T15:57:45;2.40;;;2.20;;
7517;SDS011;3800;48.922;9.444;2023-02-18T16:00:17;2.50;;;2.30;;
7517;SDS011;3800;48.922;9.444;2023-02-18T16:05:18;2.67;;;2.27;;
7517;SDS011;3800;48.922;9.444;2023-02-18T16:07:50;3.10;;;2.50;;
7517;SDS011;3800;48.922;9.444;2023-02-18T16:10:18;5.70;;;2.60;;
7517;SDS011;3800;48.922;9.444;2023-02-18T16:12:46;3.17;;;2.60;;
7517;SDS011;3800;48.922;9.444;2023-02-18T16:15:15;3.30;;;3.00;;
7517;SDS011;3800;48.922;9.444;2023-02-18T16:17:42;3.57;;;2.73;;
7517;SDS011;3800;48.922;9.444;2023-02-18T16:20:15;3.00;;;2.63;;
7517;SDS011;3800;48.922;9.444;2023-02-18T16:22:43;2.20;;;2.00;;
7517;SDS011;3800;48.922;9.444;2023-02-18T16:25:15;3.47;;;2.77;;
7517;SDS011;3800;48.922;9.444;2023-02-18T16:30:21;2.87;;;2.57;;